CheckWX is a tool to help pilots better visualize weather data.  It is not intended as a substitute for an official pre-flight weather briefing.

20:47:54 UTC

KMKC TAF
Charles B Wheeler Downtown Airport
Kansas City, Missouri, USA
KMKC 201720Z 2018/2118 18015G25KT P6SM BKN150 FM210000 18010G20KT P6SM VCSH OVC035 FM210300 19015G25KT 4SM RA BR OVC019 FM211200 23015KT 6SM -RA BR OVC020 FM211400 30015KT P6SM VCSH BKN021

Nov-20@
18:00 UTC

Nov-20 @ 18:00 UTC

Nov-21@
00:00 UTC

Nov-21 @ 00:00 UTC

KMKC 201720Z 2018/2118 18015G25KT P6SM BKN150
Wind
  • 180° at 15 KTS
  • {Gusting to 25 KTS
Cloud Levels
  • Broken at 15,000' AGL

Nov-21@
00:00 UTC

Nov-21 @ 00:00 UTC

Nov-21@
03:00 UTC

Nov-21 @ 03:00 UTC

FM210000 18010G20KT P6SM VCSH OVC035

From

From Standard forecast or significant change

Wind
  • 180° at 10 KTS
  • {Gusting to 20 KTS
Cloud Levels
  • Overcast at 3,500' AGL

Nov-21@
03:00 UTC

Nov-21 @ 03:00 UTC

Nov-21@
12:00 UTC

Nov-21 @ 12:00 UTC

FM210300 19015G25KT 4SM RA BR OVC019

From

From Standard forecast or significant change

Wind
  • 190° at 15 KTS
  • {Gusting to 25 KTS
Conditions
Rain, Mist
Cloud Levels
  • Overcast at 1,900' AGL

Nov-21@
12:00 UTC

Nov-21 @ 12:00 UTC

Nov-21@
14:00 UTC

Nov-21 @ 14:00 UTC

FM211200 23015KT 6SM -RA BR OVC020

From

From Standard forecast or significant change

Wind
  • 230° at 15 KTS
Conditions
Light Rain, Mist
Cloud Levels
  • Overcast at 2,000' AGL

Nov-21@
14:00 UTC

Nov-21 @ 14:00 UTC

Nov-21@
18:00 UTC

Nov-21 @ 18:00 UTC

FM211400 30015KT P6SM VCSH BKN021

From

From Standard forecast or significant change

Wind
  • 300° at 15 KTS
Cloud Levels
  • Broken at 2,100' AGL